Time;durP1;ratioP1;P1;durP2;ratioP2;P2;SDS_P1;SDS_P2;PMS_P1;PMS_P2;Temp;Humidity;BMP_temperature;BMP_pressure;BME280_temperature;BME280_humidity;BME280_pressure;Samples;Min_cycle;Max_cycle;Signal;HPM_P1;HPM_P2
2022/05/02 00:01:08;;;;;;;;;;;;;;;18.01;66.82;101198.09;7401466;19;1535;-55
2022/05/02 00:03:36;;;;;;;;;;;;;;;18.03;66.31;101196.16;7403278;19;1845;-63
2022/05/02 00:06:07;;;;;;;;;;;;;;;18.01;66.44;101193.59;7403323;19;1668;-56
2022/05/02 00:08:35;;;;;;;;;;;;;;;18.02;66.47;101215.84;7402141;19;1642;-61
2022/05/02 00:11:03;;;;;;;;;;;;;;;17.97;66.17;101193.94;7402732;19;1551;-63
2022/05/02 00:13:34;;;;;;;;;;;;;;;17.99;66.11;101205.38;7402329;19;1806;-55
2022/05/02 00:16:02;;;;;;;;;;;;;;;17.98;66.89;101192.97;7402708;19;1535;-62
2022/05/02 00:18:31;;;;;;;;;;;;;;;18.00;66.70;101196.38;7403180;19;1063;-55
2022/05/02 00:20:59;;;;;;;;;;;;;;;17.98;66.28;101209.00;7402172;19;1679;-54
2022/05/02 00:23:28;;;;;;;;;;;;;;;17.97;66.28;101202.81;7403994;19;1859;-63
2022/05/02 00:25:56;;;;;;;;;;;;;;;17.99;66.66;101198.19;7410001;19;1612;-54
2022/05/02 00:28:25;;;;;;;;;;;;;;;17.99;66.71;101203.56;7409937;19;1550;-55
2022/05/02 00:30:55;;;;;;;;;;;;;;;17.96;66.25;101210.97;7410026;19;1640;-55
2022/05/02 00:33:24;;;;;;;;;;;;;;;17.96;65.97;101195.75;7410105;19;1888;-63
2022/05/02 00:35:52;;;;;;;;;;;;;;;17.98;66.36;101211.69;7409234;19;1703;-63
2022/05/02 00:38:20;;;;;;;;;;;;;;;17.96;66.14;101197.59;7410400;19;1516;-55
2022/05/02 00:40:49;;;;;;;;;;;;;;;17.96;66.29;101200.25;7409727;19;1906;-63
2022/05/02 00:43:17;;;;;;;;;;;;;;;17.96;66.62;101205.59;7408664;19;1852;-54
2022/05/02 00:45:46;;;;;;;;;;;;;;;17.96;66.52;101201.09;7409972;19;1611;-63
2022/05/02 00:48:16;;;;;;;;;;;;;;;17.93;65.95;101216.56;7409359;19;1667;-54
2022/05/02 00:50:47;;;;;;;;;;;;;;;17.97;66.30;101223.38;7408293;19;1662;-63
2022/05/02 00:53:16;;;;;;;;;;;;;;;17.95;66.38;101206.59;7408974;19;1654;-62
2022/05/02 00:55:45;;;;;;;;;;;;;;;17.96;66.14;101216.31;7408261;19;1644;-63
2022/05/02 00:58:13;;;;;;;;;;;;;;;17.96;66.07;101205.59;7406442;19;1311;-55
2022/05/02 01:00:42;;;;;;;;;;;;;;;17.94;66.12;101210.22;7408184;19;1622;-54
2022/05/02 01:03:12;;;;;;;;;;;;;;;17.95;66.45;101209.28;7407758;19;1852;-60
2022/05/02 01:08:25;;;;;;;;;;;;;;;17.93;66.21;101195.16;7405042;19;1635;-62
2022/05/02 01:10:55;;;;;;;;;;;;;;;17.94;66.29;101212.91;7408277;19;1600;-63
2022/05/02 01:13:36;;;;;;;;;;;;;;;17.94;66.56;101188.81;7407253;19;1745;-55
2022/05/02 01:16:11;;;;;;;;;;;;;;;17.93;66.71;101208.53;7408730;19;1520;-62
2022/05/02 01:18:40;;;;;;;;;;;;;;;17.91;66.35;101200.63;7410430;19;960;-63
2022/05/02 01:21:15;;;;;;;;;;;;;;;17.91;66.80;101205.97;7406651;19;1761;-63
2022/05/02 01:23:44;;;;;;;;;;;;;;;17.91;66.35;101207.81;7406389;19;1854;-55
2022/05/02 01:26:12;;;;;;;;;;;;;;;17.88;66.38;101190.97;7405957;19;1639;-54
2022/05/02 01:28:44;;;;;;;;;;;;;;;17.91;66.13;101207.81;7407166;19;1325;-54
2022/05/02 01:31:12;;;;;;;;;;;;;;;17.92;66.09;101193.44;7407065;19;1397;-55
2022/05/02 01:33:41;;;;;;;;;;;;;;;17.89;65.92;101195.38;7403518;19;1112;-62
2022/05/02 01:36:10;;;;;;;;;;;;;;;17.91;65.68;101181.03;7406236;19;1303;-63
2022/05/02 01:38:41;;;;;;;;;;;;;;;17.89;65.74;101182.00;7407311;19;1428;-57
2022/05/02 01:41:10;;;;;;;;;;;;;;;17.89;66.12;101184.69;7407169;19;1351;-55
2022/05/02 01:43:39;;;;;;;;;;;;;;;17.91;65.72;101181.03;7405744;19;1862;-62
2022/05/02 01:46:08;;;;;;;;;;;;;;;17.88;65.61;101177.59;7406919;19;1239;-54
2022/05/02 01:48:37;;;;;;;;;;;;;;;17.89;65.78;101184.69;7408192;19;1143;-62
2022/05/02 01:51:05;;;;;;;;;;;;;;;17.91;65.79;101194.44;7407096;19;1642;-62
2022/05/02 01:53:33;;;;;;;;;;;;;;;17.89;65.61;101184.69;7406601;19;1780;-55
2022/05/02 01:56:04;;;;;;;;;;;;;;;17.86;66.34;101168.00;7406171;19;1356;-62
2022/05/02 01:58:33;;;;;;;;;;;;;;;17.89;66.51;101173.13;7405276;19;1419;-54
2022/05/02 02:01:01;;;;;;;;;;;;;;;17.81;66.08;101154.97;7388762;19;1884;-36
2022/05/02 02:03:32;;;;;;;;;;;;;;;17.87;66.20;101164.38;7398736;19;1927;-36
2022/05/02 02:06:00;;;;;;;;;;;;;;;17.84;66.25;101152.06;7402172;19;1752;-36
2022/05/02 02:08:33;;;;;;;;;;;;;;;17.87;66.11;101186.63;7402724;19;1760;-36
2022/05/02 02:11:02;;;;;;;;;;;;;;;17.88;66.31;101169.56;7404401;19;1499;-36
2022/05/02 02:13:46;;;;;;;;;;;;;;;17.88;66.20;101176.75;7402135;19;1994;-36
2022/05/02 02:16:19;;;;;;;;;;;;;;;17.86;66.50;101168.84;7404059;19;1496;-36
2022/05/02 02:18:50;;;;;;;;;;;;;;;17.85;65.71;101172.50;7403018;19;1717;-36
2022/05/02 02:21:19;;;;;;;;;;;;;;;17.86;65.73;101168.00;7403517;19;1807;-36
2022/05/02 02:23:48;;;;;;;;;;;;;;;17.83;65.50;101161.06;7399801;19;1887;-36
2022/05/02 02:26:16;;;;;;;;;;;;;;;17.84;65.95;101168.13;7402898;19;1677;-36
2022/05/02 02:28:48;;;;;;;;;;;;;;;17.83;66.02;101168.22;7401605;19;1481;-36
2022/05/02 02:31:21;;;;;;;;;;;;;;;17.82;65.91;101167.34;7401557;19;1657;-36
2022/05/02 02:33:50;;;;;;;;;;;;;;;17.83;66.27;101168.22;7403426;19;1496;-36
2022/05/02 02:36:18;;;;;;;;;;;;;;;17.85;65.90;101167.16;7401690;19;1939;-36
2022/05/02 02:38:49;;;;;;;;;;;;;;;17.80;65.71;101150.56;7400963;19;1588;-36
2022/05/02 02:41:17;;;;;;;;;;;;;;;17.82;66.42;101162.00;7399386;19;1848;-36
2022/05/02 02:43:45;;;;;;;;;;;;;;;17.79;66.32;101156.06;7398304;19;1847;-36
2022/05/02 02:46:17;;;;;;;;;;;;;;;17.80;65.90;101163.94;7400136;19;1771;-36
2022/05/02 02:48:52;;;;;;;;;;;;;;;17.80;65.81;101155.91;7402603;19;1497;-36
2022/05/02 02:51:21;;;;;;;;;;;;;;;17.81;65.82;101165.66;7402230;19;1383;-36
2022/05/02 02:53:51;;;;;;;;;;;;;;;17.81;66.26;101154.97;7401691;19;1956;-36
2022/05/02 02:56:21;;;;;;;;;;;;;;;17.83;66.22;101152.16;7400553;19;1817;-36
2022/05/02 02:58:50;;;;;;;;;;;;;;;17.81;65.92;101160.31;7401581;19;1907;-36
2022/05/02 03:01:19;;;;;;;;;;;;;;;17.79;65.54;101156.06;7400671;19;1797;-36
2022/05/02 03:03:56;;;;;;;;;;;;;;;17.80;66.01;101158.59;7401222;19;1823;-36
2022/05/02 03:06:22;;;;;;;;;;;;;;;17.81;65.63;101160.31;7402539;19;1481;-36
2022/05/02 03:08:51;;;;;;;;;;;;;;;17.79;65.54;101162.25;7401887;19;1852;-36
2022/05/02 03:11:20;;;;;;;;;;;;;;;17.80;65.73;101152.41;7401492;19;1710;-36
2022/05/02 03:13:49;;;;;;;;;;;;;;;17.79;65.69;101164.94;7401877;19;1887;-36
2022/05/02 03:16:24;;;;;;;;;;;;;;;17.76;65.60;101167.81;7400924;19;1999;-36
2022/05/02 03:19:03;;;;;;;;;;;;;;;;;;;;;
2022/05/02 03:21:41;;;;;;;;;;;;;;;17.77;65.99;101177.56;7400513;19;1595;-35
2022/05/02 03:24:10;;;;;;;;;;;;;;;17.77;66.09;101174.91;7398881;19;1871;-36
2022/05/02 03:26:38;;;;;;;;;;;;;;;17.76;65.43;101177.69;7400526;19;1464;-36
2022/05/02 03:29:06;;;;;;;;;;;;;;;17.75;65.52;101173.31;7399994;19;1438;-36
2022/05/02 03:31:43;;;;;;;;;;;;;;;17.77;65.32;101169.53;7401593;19;2197;-36
2022/05/02 03:34:11;;;;;;;;;;;;;;;17.77;65.82;101158.00;7401586;19;1348;-36
2022/05/02 03:36:42;;;;;;;;;;;;;;;17.76;65.82;101173.16;7401117;19;1466;-36
2022/05/02 03:39:13;;;;;;;;;;;;;;;17.77;65.53;101169.53;7399023;19;1760;-36
2022/05/02 03:41:54;;;;;;;;;;;;;;;;;;;;;
2022/05/02 03:44:27;;;;;;;;;;;;;;;17.80;65.77;101171.13;7397934;19;2082;-36
2022/05/02 03:46:55;;;;;;;;;;;;;;;17.77;65.52;101182.91;7400733;19;1449;-35
2022/05/02 03:49:35;;;;;;;;;;;;;;;17.79;65.72;101161.41;7400288;19;1128;-36
2022/05/02 03:52:09;;;;;;;;;;;;;;;17.78;65.68;101165.88;7400644;19;1206;-35
2022/05/02 03:54:38;;;;;;;;;;;;;;;17.79;65.52;101172.94;7400409;19;1954;-36
2022/05/02 03:57:11;;;;;;;;;;;;;;;17.82;65.81;101166.50;7399864;19;1776;-36
2022/05/02 03:59:40;;;;;;;;;;;;;;;17.80;65.51;101147.03;7406625;19;1406;-36
2022/05/02 04:02:08;;;;;;;;;;;;;;;17.82;65.71;101156.66;7405398;19;1496;-36
2022/05/02 04:04:37;;;;;;;;;;;;;;;17.82;65.60;101145.94;7405345;19;1840;-37
2022/05/02 04:07:08;;;;;;;;;;;;;;;17.83;65.18;101153.06;7408410;19;1389;-37
2022/05/02 04:09:36;;;;;;;;;;;;;;;17.85;65.12;101143.09;7408103;19;1803;-36
2022/05/02 04:12:07;;;;;;;;;;;;;;;17.89;65.09;101152.56;7407561;19;1432;-36
2022/05/02 04:14:56;;;;;;;;;;;;;;;17.88;64.92;101145.50;7407263;19;1909;-36
2022/05/02 04:17:25;;;;;;;;;;;;;;;17.89;65.44;101152.56;7407295;19;1392;-36
2022/05/02 04:19:53;;;;;;;;;;;;;;;17.93;64.91;101152.34;7406403;19;1595;-36
2022/05/02 04:22:30;;;;;;;;;;;;;;;17.94;64.48;101146.00;7406406;19;1244;-36
2022/05/02 04:25:00;;;;;;;;;;;;;;;17.96;65.03;101142.22;7403587;19;1859;-37
2022/05/02 04:27:29;;;;;;;;;;;;;;;17.97;64.69;101151.13;7407631;19;1674;-37
2022/05/02 04:30:00;;;;;;;;;;;;;;;18.00;64.80;101158.91;7407375;19;2067;-37
2022/05/02 04:32:28;;;;;;;;;;;;;;;18.01;64.85;101149.94;7406933;19;1831;-37
2022/05/02 04:35:14;;;;;;;;;;;;;;;18.00;65.39;101154.41;7407362;19;1754;-37
2022/05/02 04:37:58;;;;;;;;;;;;;;;18.01;65.07;101152.59;7405919;19;1708;-37
2022/05/02 04:40:33;;;;;;;;;;;;;;;17.98;61.06;101152.81;7408325;19;1149;-37
2022/05/02 04:43:02;;;;;;;;;;;;;;;18.01;61.33;101157.94;7405632;19;1857;-37
2022/05/02 04:45:34;;;;;;;;;;;;;;;18.02;62.63;101157.81;7405890;19;1462;-37
2022/05/02 04:48:03;;;;;;;;;;;;;;;18.02;62.95;101163.16;7405693;19;1486;-37
2022/05/02 04:50:32;;;;;;;;;;;;;;;18.05;64.45;101146.03;7404259;19;1776;-36
2022/05/02 04:53:00;;;;;;;;;;;;;;;18.09;64.00;101169.75;7405104;19;1514;-37
2022/05/02 04:55:35;;;;;;;;;;;;;;;18.03;63.98;101166.72;7405346;19;1354;-37
2022/05/02 04:58:06;;;;;;;;;;;;;;;18.06;59.75;101147.72;7406443;19;2058;-37
2022/05/02 05:03:17;;;;;;;;;;;;;;;18.16;62.95;101153.22;7400546;19;2318;-37
2022/05/02 05:05:45;;;;;;;;;;;;;;;18.17;63.22;101161.13;7405204;19;1843;-37
2022/05/02 05:08:25;;;;;;;;;;;;;;;18.20;63.96;101147.47;7405052;19;1617;-37
2022/05/02 05:11:08;;;;;;;;;;;;;;;18.19;63.80;101151.16;7405959;19;1727;-37
2022/05/02 05:13:41;;;;;;;;;;;;;;;18.23;63.77;101138.38;7405389;19;1891;-37
2022/05/02 05:16:31;;;;;;;;;;;;;;;18.20;63.99;101144.81;7404625;19;1752;-37
2022/05/02 05:19:16;;;;;;;;;;;;;;;18.22;63.99;101148.25;7404562;19;1807;-37
2022/05/02 05:22:09;;;;;;;;;;;;;;;18.27;64.27;101146.03;7404890;19;1639;-37
2022/05/02 05:28:15;;;;;;;;;;;;;;;18.31;64.16;101135.94;7402360;19;2199;-37
2022/05/02 05:30:47;;;;;;;;;;;;;;;18.31;63.92;101137.78;7403084;19;1790;-37
2022/05/02 05:33:23;;;;;;;;;;;;;;;18.33;64.47;101149.22;7405884;19;963;-37
2022/05/02 05:36:08;;;;;;;;;;;;;;;18.34;64.26;101135.69;7404520;19;1728;-37
2022/05/02 05:38:41;;;;;;;;;;;;;;;18.37;64.55;101142.63;7402638;19;1722;-37
2022/05/02 05:41:19;;;;;;;;;;;;;;;18.42;64.14;101137.75;7403951;19;1486;-37
2022/05/02 05:44:03;;;;;;;;;;;;;;;18.42;64.10;101140.44;7403205;19;1864;-37
2022/05/02 05:46:55;;;;;;;;;;;;;;;18.42;64.60;101140.44;7403123;19;1804;-37
2022/05/02 05:49:47;;;;;;;;;;;;;;;;;;;;;
2022/05/02 05:52:37;;;;;;;;;;;;;;;18.43;64.60;101132.28;7400707;19;1465;-37
2022/05/02 05:55:10;;;;;;;;;;;;;;;18.43;64.23;101143.00;7404308;19;1427;-37
2022/05/02 05:58:13;;;;;;;;;;;;;;;18.40;64.51;101134.34;7404116;19;1680;-37
2022/05/02 06:00:46;;;;;;;;;;;;;;;18.60;63.87;101147.00;7403786;19;1820;-37
2022/05/02 06:03:26;;;;;;;;;;;;;;;18.59;63.55;101145.28;7402535;19;1402;-37
2022/05/02 06:05:56;;;;;;;;;;;;;;;18.55;62.96;101146.50;7403407;19;1801;-37
2022/05/02 06:08:25;;;;;;;;;;;;;;;18.57;62.07;101147.25;7402671;19;1773;-37
2022/05/02 06:10:57;;;;;;;;;;;;;;;18.57;62.33;101139.22;7404120;19;1585;-37
2022/05/02 06:13:27;;;;;;;;;;;;;;;18.66;62.06;101151.88;7402411;19;1833;-37
2022/05/02 06:18:49;;;;;;;;;;;;;;;18.63;61.93;101146.75;7405794;19;1340;-37
2022/05/02 06:21:21;;;;;;;;;;;;;;;18.59;62.52;101150.66;7402445;19;1821;-37
2022/05/02 06:23:52;;;;;;;;;;;;;;;18.60;62.16;101130.94;7402910;19;1846;-37
2022/05/02 06:26:26;;;;;;;;;;;;;;;18.61;62.19;101132.63;7401713;19;1873;-37
2022/05/02 06:28:58;;;;;;;;;;;;;;;18.62;61.78;101134.34;7401754;19;1622;-37
2022/05/02 06:31:28;;;;;;;;;;;;;;;18.62;61.82;101129.00;7401755;19;1832;-36
2022/05/02 06:34:07;;;;;;;;;;;;;;;18.65;61.52;101133.22;7402381;19;1688;-37
2022/05/02 06:36:50;;;;;;;;;;;;;;;18.64;61.95;101148.47;7403122;19;1706;-37
2022/05/02 06:39:29;;;;;;;;;;;;;;;18.65;61.28;101135.91;7401897;19;1968;-37
2022/05/02 06:42:13;;;;;;;;;;;;;;;18.64;61.25;101137.75;7403183;19;1685;-37
2022/05/02 06:44:51;;;;;;;;;;;;;;;18.65;61.39;101133.22;7402206;19;1822;-37
2022/05/02 06:47:28;;;;;;;;;;;;;;;18.65;61.75;101131.41;7403061;19;1286;-37
2022/05/02 06:50:05;;;;;;;;;;;;;;;18.65;61.68;101130.56;7401051;19;1917;-37
2022/05/02 06:52:43;;;;;;;;;;;;;;;18.66;61.53;101138.47;7402510;19;1789;-38
2022/05/02 06:55:19;;;;;;;;;;;;;;;18.65;61.72;101133.22;7399967;19;1944;-37
2022/05/02 06:57:56;;;;;;;;;;;;;;;18.65;61.27;101134.06;7402972;19;1690;-37
2022/05/02 07:03:33;;;;;;;;;;;;;;;18.67;61.47;101131.28;7401090;19;2027;-37
2022/05/02 07:06:18;;;;;;;;;;;;;;;18.67;61.34;101136.63;7400592;19;2149;-37
2022/05/02 07:08:57;;;;;;;;;;;;;;;18.70;61.64;101133.69;7401377;19;1576;-38
2022/05/02 07:11:30;;;;;;;;;;;;;;;18.67;61.79;101126.78;7402076;19;1693;-36
2022/05/02 07:14:05;;;;;;;;;;;;;;;18.67;61.38;101136.63;7401600;19;2205;-38
2022/05/02 07:16:37;;;;;;;;;;;;;;;18.73;60.96;101130.78;7401420;19;1895;-37
2022/05/02 07:19:19;;;;;;;;;;;;;;;18.73;61.66;101130.78;7401286;19;1757;-38
2022/05/02 07:22:09;;;;;;;;;;;;;;;18.72;61.16;101136.25;7402178;19;1676;-37
2022/05/02 07:24:59;;;;;;;;;;;;;;;18.73;61.13;101140.66;7400901;19;2016;-38
2022/05/02 07:27:44;;;;;;;;;;;;;;;18.72;61.61;101117.50;7398852;19;1749;-37
2022/05/02 07:30:12;;;;;;;;;;;;;;;18.71;61.64;101121.19;7402223;19;1676;-38
2022/05/02 07:32:43;;;;;;;;;;;;;;;18.74;61.44;101145.91;7398968;19;1492;-37
2022/05/02 07:35:26;;;;;;;;;;;;;;;18.73;60.79;101130.78;7398967;19;1613;-37
2022/05/02 07:37:58;;;;;;;;;;;;;;;18.69;61.01;101130.19;7401294;19;1814;-37
2022/05/02 07:40:37;;;;;;;;;;;;;;;18.74;61.42;101123.59;7401704;19;1767;-37
2022/05/02 07:43:06;;;;;;;;;;;;;;;18.71;61.55;101124.69;7402585;19;1044;-37
2022/05/02 07:45:39;;;;;;;;;;;;;;;18.72;61.50;101138.94;7399461;19;1855;-37
2022/05/02 07:48:10;;;;;;;;;;;;;;;18.73;60.81;101141.50;7400072;19;1447;-37
2022/05/02 07:50:39;;;;;;;;;;;;;;;18.73;60.23;101124.59;7398275;19;1586;-38
2022/05/02 07:53:09;;;;;;;;;;;;;;;18.71;60.86;101127.38;7400579;19;1778;-37
2022/05/02 07:55:48;;;;;;;;;;;;;;;18.73;60.86;101130.78;7400502;19;1689;-37
2022/05/02 07:58:17;;;;;;;;;;;;;;;18.73;60.79;101121.91;7400367;19;1781;-37
2022/05/02 08:00:45;;;;;;;;;;;;;;;18.72;60.71;101112.16;7399902;19;1912;-38
2022/05/02 08:03:16;;;;;;;;;;;;;;;18.67;60.98;101093.78;7399717;19;1476;-37
2022/05/02 08:05:49;;;;;;;;;;;;;;;18.71;61.05;101105.09;7398580;19;1915;-37
2022/05/02 08:08:27;;;;;;;;;;;;;;;18.71;60.48;101105.94;7398040;19;1793;-37
2022/05/02 08:14:05;;;;;;;;;;;;;;;18.68;60.88;101117.78;7398319;19;2274;-38
2022/05/02 08:16:39;;;;;;;;;;;;;;;18.66;60.27;101092.94;7400800;19;1820;-37
2022/05/02 08:19:24;;;;;;;;;;;;;;;18.71;60.01;101094.38;7396590;19;1897;-37
2022/05/02 08:27:49;;;;;;;;;;;;;;;18.68;59.39;101104.38;7400099;19;1576;-37
2022/05/02 08:30:36;;;;;;;;;;;;;;;18.69;59.39;101087.31;7399909;19;1941;-38
2022/05/02 08:33:18;;;;;;;;;;;;;;;18.71;59.66;101081.00;7400723;19;1057;-37
2022/05/02 08:35:56;;;;;;;;;;;;;;;18.79;59.51;101081.22;7399999;19;1903;-37
2022/05/02 08:38:51;;;;;;;;;;;;;;;18.72;59.13;101088.91;7398396;19;1574;-37
2022/05/02 08:41:35;;;;;;;;;;;;;;;18.70;58.51;101077.44;7394811;19;1900;-38
2022/05/02 08:44:19;;;;;;;;;;;;;;;18.71;58.87;101073.81;7401002;19;1842;-37
2022/05/02 08:47:15;;;;;;;;;;;;;;;18.68;59.44;101053.47;7404251;19;1963;-38
2022/05/02 08:50:02;;;;;;;;;;;;;;;18.71;59.44;101067.59;7405571;19;1701;-37
2022/05/02 08:52:58;;;;;;;;;;;;;;;18.69;59.52;101065.03;7405476;19;2341;-37
2022/05/02 08:55:48;;;;;;;;;;;;;;;18.71;59.40;101059.56;7403899;19;1819;-38
2022/05/02 08:58:44;;;;;;;;;;;;;;;18.69;59.05;101040.94;7404533;19;1779;-38
2022/05/02 09:01:36;;;;;;;;;;;;;;;18.68;59.32;101047.25;7405194;19;1807;-38
2022/05/02 09:04:31;;;;;;;;;;;;;;;;;;;;;
2022/05/02 09:07:23;;;;;;;;;;;;;;;18.65;59.47;101036.81;7395998;19;1373;-37
2022/05/02 09:10:08;;;;;;;;;;;;;;;18.82;55.35;101052.38;7401369;19;1322;-37
2022/05/02 09:12:55;;;;;;;;;;;;;;;18.81;53.96;101026.53;7398397;19;1670;-38
2022/05/02 09:15:42;;;;;;;;;;;;;;;18.76;55.79;101034.09;7403052;19;2000;-39
2022/05/02 09:18:30;;;;;;;;;;;;;;;18.68;56.93;101024.00;7402868;19;1060;-37
2022/05/02 09:21:18;;;;;;;;;;;;;;;18.66;56.71;101023.28;7405022;19;1907;-38
2022/05/02 09:24:11;;;;;;;;;;;;;;;18.64;57.57;101014.53;7405097;19;1677;-37
2022/05/02 09:26:59;;;;;;;;;;;;;;;18.64;57.29;101009.19;7403432;19;1851;-38
2022/05/02 09:29:46;;;;;;;;;;;;;;;18.67;57.29;101024.13;7404227;19;1561;-37
2022/05/02 09:32:21;;;;;;;;;;;;;;;18.65;56.91;101013.53;7400605;19;1737;-37
2022/05/02 09:35:07;;;;;;;;;;;;;;;18.67;57.62;101029.50;7402536;19;1867;-37
2022/05/02 09:37:51;;;;;;;;;;;;;;;18.64;56.59;101013.66;7404455;19;1784;-38
2022/05/02 09:40:33;;;;;;;;;;;;;;;18.65;56.95;101005.50;7403537;19;1283;-37
2022/05/02 09:43:08;;;;;;;;;;;;;;;18.63;56.43;100999.44;7403598;19;1413;-37
2022/05/02 09:51:36;;;;;;;;;;;;;;;18.61;56.93;101000.53;7404948;19;1445;-37
2022/05/02 09:54:06;;;;;;;;;;;;;;;18.61;56.85;100993.34;7402224;19;1537;-37
2022/05/02 09:56:45;;;;;;;;;;;;;;;18.60;56.99;100972.91;7400928;19;1819;-37
2022/05/02 09:59:21;;;;;;;;;;;;;;;18.60;56.75;100972.91;7404777;19;1939;-37
2022/05/02 10:01:53;;;;;;;;;;;;;;;18.58;56.97;100974.00;7403400;19;2077;-37
2022/05/02 10:04:42;;;;;;;;;;;;;;;18.66;56.46;100980.44;7404337;19;1778;-37
2022/05/02 10:07:20;;;;;;;;;;;;;;;18.65;56.71;100972.53;7404881;19;1092;-37
2022/05/02 10:12:54;;;;;;;;;;;;;;;18.76;55.66;100974.28;7403697;19;2984;-37
2022/05/02 10:15:47;;;;;;;;;;;;;;;18.68;56.13;100967.75;7409441;19;1346;-37
2022/05/02 10:18:27;;;;;;;;;;;;;;;18.68;56.33;100958.84;7404345;19;1600;-37
2022/05/02 10:21:06;;;;;;;;;;;;;;;18.65;57.27;100957.28;7403907;19;2161;-37
2022/05/02 10:24:12;;;;;;;;;;;;;;;18.62;56.89;100967.41;7401189;19;1539;-37
2022/05/02 10:26:44;;;;;;;;;;;;;;;18.66;57.20;100964.38;7400717;19;1848;-36
2022/05/02 10:29:27;;;;;;;;;;;;;;;18.64;56.40;100949.38;7403742;19;1955;-37
2022/05/02 10:32:26;;;;;;;;;;;;;;;18.63;56.30;100966.44;7403332;19;1928;-37
2022/05/02 10:35:01;;;;;;;;;;;;;;;18.65;56.47;100951.94;7401794;19;1940;-37
2022/05/02 10:37:44;;;;;;;;;;;;;;;18.64;56.08;100962.75;7404087;19;1680;-37
2022/05/02 10:40:23;;;;;;;;;;;;;;;18.65;56.13;100959.97;7403302;19;1154;-37
2022/05/02 10:42:58;;;;;;;;;;;;;;;18.62;56.75;100957.56;7401816;19;1795;-37
2022/05/02 10:45:30;;;;;;;;;;;;;;;18.65;56.99;100951.09;7402206;19;1855;-37
2022/05/02 10:48:14;;;;;;;;;;;;;;;18.63;56.97;100948.53;7402438;19;1773;-37
2022/05/02 10:50:52;;;;;;;;;;;;;;;18.62;56.86;100945.97;7402154;19;1810;-37
2022/05/02 10:53:41;;;;;;;;;;;;;;;18.61;56.61;100945.13;7403053;19;1661;-37
2022/05/02 10:56:41;;;;;;;;;;;;;;;18.62;56.89;100937.94;7402193;19;1838;-38
2022/05/02 10:59:12;;;;;;;;;;;;;;;18.61;57.06;100930.91;7400626;19;1713;-38
2022/05/02 11:01:55;;;;;;;;;;;;;;;18.55;56.98;100934.09;7399448;19;1633;-37
2022/05/02 11:04:42;;;;;;;;;;;;;;;18.60;57.29;100930.06;7399035;19;1448;-38
2022/05/02 11:07:29;;;;;;;;;;;;;;;18.60;56.38;100930.06;7401063;19;1848;-37
2022/05/02 11:10:05;;;;;;;;;;;;;;;18.62;56.66;100933.47;7402706;19;1450;-37
2022/05/02 11:12:39;;;;;;;;;;;;;;;18.66;56.85;100920.63;7402725;19;1764;-38
2022/05/02 11:20:41;;;;;;;;;;;;;;;18.66;56.81;100910.78;7400719;19;1540;-37
2022/05/02 11:21:03;;;;;;;;;;;;;;;18.66;56.78;100910.78;7401503;19;1817;-37
2022/05/02 11:23:44;;;;;;;;;;;;;;;18.68;56.31;100907.94;7400610;19;1900;-37
2022/05/02 11:26:33;;;;;;;;;;;;;;;18.78;55.51;100910.72;7401074;19;1861;-38
2022/05/02 11:29:19;;;;;;;;;;;;;;;18.82;55.55;100888.06;7400142;19;1830;-37
2022/05/02 11:32:02;;;;;;;;;;;;;;;18.77;55.91;100911.69;7401409;19;1830;-37
2022/05/02 11:34:40;;;;;;;;;;;;;;;18.66;56.16;100889.34;7398926;19;1947;-37
2022/05/02 11:37:15;;;;;;;;;;;;;;;18.63;56.27;100900.31;7402496;19;962;-37
2022/05/02 11:40:09;;;;;;;;;;;;;;;18.62;55.92;100895.97;7401727;19;1619;-37
2022/05/02 11:42:43;;;;;;;;;;;;;;;18.61;56.39;100918.34;7401638;19;2428;-37
2022/05/02 11:45:17;;;;;;;;;;;;;;;18.61;56.11;100896.09;7400771;19;1842;-37
2022/05/02 11:48:06;;;;;;;;;;;;;;;18.61;56.22;100898.75;7401239;19;1449;-38
2022/05/02 11:50:43;;;;;;;;;;;;;;;18.59;56.28;100904.25;7398891;19;1848;-38
2022/05/02 11:53:16;;;;;;;;;;;;;;;18.58;56.45;100891.84;7398047;19;1496;-37
2022/05/02 11:55:53;;;;;;;;;;;;;;;18.61;56.16;100878.16;7400429;19;1637;-37
2022/05/02 11:58:28;;;;;;;;;;;;;;;18.60;56.43;100883.66;7400443;19;1426;-37
2022/05/02 12:01:06;;;;;;;;;;;;;;;18.56;56.42;100893.81;7400139;19;1569;-37
2022/05/02 12:03:52;;;;;;;;;;;;;;;18.56;55.98;100880.41;7400739;19;1744;-37
2022/05/02 12:06:45;;;;;;;;;;;;;;;18.56;56.41;100872.38;7399926;19;1868;-37
2022/05/02 12:09:32;;;;;;;;;;;;;;;18.54;55.98;100868.94;7400227;19;2001;-37
2022/05/02 12:12:08;;;;;;;;;;;;;;;18.53;56.52;100866.44;7399925;19;1497;-38
2022/05/02 12:14:45;;;;;;;;;;;;;;;18.51;56.45;100874.59;7399773;19;1933;-37
2022/05/02 12:17:23;;;;;;;;;;;;;;;18.55;56.57;100859.94;7401443;19;1701;-37
2022/05/02 12:19:58;;;;;;;;;;;;;;;18.54;55.41;100858.25;7403994;19;1764;-37
2022/05/02 12:22:32;;;;;;;;;;;;;;;18.55;56.47;100859.94;7406407;19;1770;-37
2022/05/02 12:25:10;;;;;;;;;;;;;;;18.56;55.89;100845.59;7408028;19;1918;-37
2022/05/02 12:27:42;;;;;;;;;;;;;;;18.57;55.64;100835.72;7402755;19;1937;-37
2022/05/02 12:30:15;;;;;;;;;;;;;;;18.55;55.37;100827.81;7407640;19;1751;-37
2022/05/02 12:32:52;;;;;;;;;;;;;;;18.58;55.58;100835.59;7407400;19;1825;-37
2022/05/02 12:35:27;;;;;;;;;;;;;;;18.55;56.11;100833.16;7406426;19;1815;-38
2022/05/02 12:37:55;;;;;;;;;;;;;;;18.51;56.07;100834.41;7406531;19;1704;-37
2022/05/02 12:40:26;;;;;;;;;;;;;;;18.56;55.95;100823.28;7407663;19;1832;-37
2022/05/02 12:43:07;;;;;;;;;;;;;;;18.52;55.88;100817.34;7407247;19;1853;-37
2022/05/02 12:45:46;;;;;;;;;;;;;;;18.52;55.94;100822.69;7407141;19;1907;-38
2022/05/02 12:48:23;;;;;;;;;;;;;;;18.50;56.14;100816.63;7406120;19;1648;-38
2022/05/02 12:50:52;;;;;;;;;;;;;;;18.57;55.97;100825.84;7405887;19;1828;-37
2022/05/02 12:56:17;;;;;;;;;;;;;;;18.62;56.09;100809.38;7402895;19;1744;-37
2022/05/02 13:01:32;;;;;;;;;;;;;;;18.61;56.43;100808.53;7405204;19;1644;-37
2022/05/02 13:04:11;;;;;;;;;;;;;;;18.63;56.23;100800.38;7406809;19;1606;-37
2022/05/02 13:06:49;;;;;;;;;;;;;;;18.63;56.35;100814.59;7404478;19;1857;-37
2022/05/02 13:09:29;;;;;;;;;;;;;;;18.57;56.71;100817.81;7405824;19;1928;-37
2022/05/02 13:12:02;;;;;;;;;;;;;;;18.56;56.64;100796.50;7406106;19;1940;-38
2022/05/02 13:14:34;;;;;;;;;;;;;;;18.56;56.64;100788.47;7405053;19;1586;-38
2022/05/02 13:17:12;;;;;;;;;;;;;;;18.54;56.50;100788.59;7406783;19;1581;-37
2022/05/02 13:19:45;;;;;;;;;;;;;;;18.59;56.87;100781.03;7405462;19;1587;-37
2022/05/02 13:22:16;;;;;;;;;;;;;;;18.56;57.00;100778.66;7406646;19;1106;-37
2022/05/02 13:24:56;;;;;;;;;;;;;;;18.55;56.77;100793.00;7406102;19;1659;-37
2022/05/02 13:27:28;;;;;;;;;;;;;;;18.55;56.88;100776.09;7403930;19;1846;-37
2022/05/02 13:30:08;;;;;;;;;;;;;;;18.56;57.20;100781.31;7405001;19;1548;-37
2022/05/02 13:32:41;;;;;;;;;;;;;;;18.57;56.53;100782.16;7405506;19;1795;-37
2022/05/02 13:35:11;;;;;;;;;;;;;;;18.54;56.80;100777.91;7404124;19;1849;-38
2022/05/02 13:37:52;;;;;;;;;;;;;;;18.55;57.04;100784.97;7403869;19;1824;-37
2022/05/02 13:40:31;;;;;;;;;;;;;;;18.52;57.46;100777.19;7404010;19;1843;-37
2022/05/02 13:43:06;;;;;;;;;;;;;;;18.53;55.73;100789.59;7405030;19;1660;-37
2022/05/02 13:45:42;;;;;;;;;;;;;;;18.59;56.08;100790.91;7403700;19;1792;-38
2022/05/02 13:48:16;;;;;;;;;;;;;;;18.59;55.79;100794.44;7404845;19;1867;-37
2022/05/02 13:50:49;;;;;;;;;;;;;;;18.63;56.38;100786.97;7403509;19;1896;-37
2022/05/02 13:53:28;;;;;;;;;;;;;;;18.62;56.27;100796.00;7403988;19;1914;-37
2022/05/02 13:56:07;;;;;;;;;;;;;;;18.58;56.48;100787.38;7402960;19;1832;-37
2022/05/02 13:58:42;;;;;;;;;;;;;;;18.54;56.41;100798.47;7402687;19;1872;-37
2022/05/02 14:01:32;;;;;;;;;;;;;;;18.54;56.41;100782.41;7403450;19;1731;-38
2022/05/02 14:04:17;;;;;;;;;;;;;;;18.50;56.11;100784.50;7404717;19;1761;-37
2022/05/02 14:07:00;;;;;;;;;;;;;;;18.50;56.21;100776.47;7402855;19;1844;-37
2022/05/02 14:09:40;;;;;;;;;;;;;;;18.52;56.17;100790.56;7403601;19;2004;-37
2022/05/02 14:12:30;;;;;;;;;;;;;;;18.51;56.31;100772.81;7403244;19;1737;-37
2022/05/02 14:15:02;;;;;;;;;;;;;;;18.48;56.68;100778.44;7402541;19;1985;-37
2022/05/02 14:17:36;;;;;;;;;;;;;;;18.51;56.60;100786.22;7403932;19;1642;-37